Terminal Aerodrome Forecast
Issued by NWS

Home | Current Version | Previous Version | Graphics & Text | Print | Product List | Glossary On
Versions: 1 2 3 4 5 6 7 8 9 10 11 12 13 14 15 16 17 18 19 20 21 22 23 24
966
FTUS43 KBIS 232339
TAFJMS
TAF
KJMS 232339Z 2400/2424 04009KT P6SM VCSH BKN030 OVC035
     FM240100 04008KT 5SM -SHRA SCT020 OVC030
      TEMPO 2401/2404 2SM SHRA BKN018 OVC025
     FM240400 03010KT P6SM -SHRA OVC015
     FM241000 01011KT 4SM -SHRA BR OVC006
     FM241600 36011KT 4SM -SHRA SCT005 OVC008=

USA.gov is the U.S. government's official web portal to all federal, state and local government web resources and services.